sensor_id;sensor_type;location;lat;lon;timestamp;pressure;altitude;pressure_sealevel;temperature;humidity
22657;BME280;11495;55.610;12.100;2023-04-28T14:49:38;101107.87;;;13.32;0.00
22657;BME280;11495;55.610;12.100;2023-04-28T14:52:05;101097.22;;;13.10;0.00
22657;BME280;11495;55.610;12.100;2023-04-28T14:54:30;101097.22;;;13.05;0.00
22657;BME280;11495;55.610;12.100;2023-04-28T14:57:00;101106.97;;;12.92;0.00
22657;BME280;11495;55.610;12.100;2023-04-28T14:59:27;101100.28;;;12.39;0.00
22657;BME280;11495;55.610;12.100;2023-04-28T15:01:52;101094.28;;;12.27;0.00
22657;BME280;11495;55.610;12.100;2023-04-28T15:04:19;101096.19;;;12.26;0.00
22657;BME280;11495;55.610;12.100;2023-04-28T15:06:46;101098.94;;;12.36;0.00
22657;BME280;11495;55.610;12.100;2023-04-28T15:09:12;101095.91;;;12.28;0.00
22657;BME280;11495;55.610;12.100;2023-04-28T15:11:37;101092.59;;;12.36;0.00
22657;BME280;11495;55.610;12.100;2023-04-28T15:14:03;101087.31;;;12.40;0.00
22657;BME280;11495;55.610;12.100;2023-04-28T15:16:29;101082.38;;;12.42;0.00
22657;BME280;11495;55.610;12.100;2023-04-28T15:18:58;101079.88;;;12.45;0.00
22657;BME280;11495;55.610;12.100;2023-04-28T15:21:24;101079.62;;;12.42;0.00
22657;BME280;11495;55.610;12.100;2023-04-28T15:23:55;101074.41;;;12.30;0.00
22657;BME280;11495;55.610;12.100;2023-04-28T15:27:00;101071.72;;;12.04;0.00
22657;BME280;11495;55.610;12.100;2023-04-28T15:29:28;101060.69;;;12.04;0.00
22657;BME280;11495;55.610;12.100;2023-04-28T15:31:54;101077.22;;;11.79;0.00
22657;BME280;11495;55.610;12.100;2023-04-28T15:34:34;101076.69;;;11.72;0.00
22657;BME280;11495;55.610;12.100;2023-04-28T15:36:59;101075.06;;;11.81;0.00
22657;BME280;11495;55.610;12.100;2023-04-28T15:39:30;101067.31;;;11.78;0.00
22657;BME280;11495;55.610;12.100;2023-04-28T15:42:02;101067.34;;;11.93;0.00
22657;BME280;11495;55.610;12.100;2023-04-28T15:44:28;101067.31;;;12.08;0.00
22657;BME280;11495;55.610;12.100;2023-04-28T15:46:54;101063.19;;;12.01;0.00
22657;BME280;11495;55.610;12.100;2023-04-28T15:49:25;101057.66;;;12.01;0.00
22657;BME280;11495;55.610;12.100;2023-04-28T15:51:51;101055.69;;;12.17;0.00
22657;BME280;11495;55.610;12.100;2023-04-28T15:54:32;101052.62;;;12.28;0.00
22657;BME280;11495;55.610;12.100;2023-04-28T15:56:58;101052.69;;;12.03;0.00
22657;BME280;11495;55.610;12.100;2023-04-28T15:59:26;101062.94;;;11.87;0.00
22657;BME280;11495;55.610;12.100;2023-04-28T16:01:52;101050.53;;;11.85;0.00
22657;BME280;11495;55.610;12.100;2023-04-28T16:04:38;101054.63;;;11.97;0.00
22657;BME280;11495;55.610;12.100;2023-04-28T16:07:05;101054.91;;;12.01;0.00
22657;BME280;11495;55.610;12.100;2023-04-28T16:09:33;101055.75;;;11.91;0.00
22657;BME280;11495;55.610;12.100;2023-04-28T16:14:51;101056.31;;;11.83;0.00
22657;BME280;11495;55.610;12.100;2023-04-28T16:17:17;101055.19;;;11.89;0.00
22657;BME280;11495;55.610;12.100;2023-04-28T16:19:46;101056.56;;;11.76;0.00
22657;BME280;11495;55.610;12.100;2023-04-28T16:22:11;101053.00;;;11.71;0.00
22657;BME280;11495;55.610;12.100;2023-04-28T16:27:37;101054.13;;;11.80;0.00
22657;BME280;11495;55.610;12.100;2023-04-28T16:32:59;101055.19;;;11.48;0.00
22657;BME280;11495;55.610;12.100;2023-04-28T16:35:28;101059.34;;;11.41;0.00
22657;BME280;11495;55.610;12.100;2023-04-28T16:37:58;101050.25;;;11.45;0.00
22657;BME280;11495;55.610;12.100;2023-04-28T16:40:26;101052.19;;;11.19;0.00
22657;BME280;11495;55.610;12.100;2023-04-28T16:42:53;101057.94;;;11.08;0.00
22657;BME280;11495;55.610;12.100;2023-04-28T16:45:23;101056.31;;;11.22;0.00
22657;BME280;11495;55.610;12.100;2023-04-28T16:47:59;101062.09;;;11.25;0.00
22657;BME280;11495;55.610;12.100;2023-04-28T16:50:27;101059.59;;;11.14;0.00
22657;BME280;11495;55.610;12.100;2023-04-28T16:53:20;101055.16;;;11.08;0.00
22657;BME280;11495;55.610;12.100;2023-04-28T16:55:47;101050.16;;;10.69;0.00
22657;BME280;11495;55.610;12.100;2023-04-28T16:58:13;101061.03;;;10.38;0.00
22657;BME280;11495;55.610;12.100;2023-04-28T17:00:47;101056.84;;;10.26;0.00
22657;BME280;11495;55.610;12.100;2023-04-28T17:03:13;101055.16;;;10.20;0.00
22657;BME280;11495;55.610;12.100;2023-04-28T17:05:41;101056.16;;;10.03;0.00
22657;BME280;11495;55.610;12.100;2023-04-28T17:08:07;101051.13;;;9.90;0.00
22657;BME280;11495;55.610;12.100;2023-04-28T17:10:38;101050.53;;;9.83;0.00
22657;BME280;11495;55.610;12.100;2023-04-28T17:13:11;101054.00;;;9.68;0.00
22657;BME280;11495;55.610;12.100;2023-04-28T17:15:37;101051.44;;;9.56;0.00
22657;BME280;11495;55.610;12.100;2023-04-28T17:18:10;101044.50;;;9.49;0.00
22657;BME280;11495;55.610;12.100;2023-04-28T17:20:39;101045.81;;;9.36;0.00
22657;BME280;11495;55.610;12.100;2023-04-28T17:23:34;101052.88;;;9.32;0.00
22657;BME280;11495;55.610;12.100;2023-04-28T17:26:00;101048.09;;;9.17;0.00
22657;BME280;11495;55.610;12.100;2023-04-28T17:28:27;101053.81;;;9.11;0.00
22657;BME280;11495;55.610;12.100;2023-04-28T17:30:58;101050.44;;;9.04;0.00
22657;BME280;11495;55.610;12.100;2023-04-28T17:33:28;101044.38;;;9.01;0.00
22657;BME280;11495;55.610;12.100;2023-04-28T17:35:54;101054.41;;;8.91;0.00
22657;BME280;11495;55.610;12.100;2023-04-28T17:38:20;101046.66;;;8.83;0.00
22657;BME280;11495;55.610;12.100;2023-04-28T17:40:52;101046.44;;;8.62;0.00
22657;BME280;11495;55.610;12.100;2023-04-28T17:43:19;101047.19;;;8.58;0.00
22657;BME280;11495;55.610;12.100;2023-04-28T17:45:49;101051.28;;;8.55;0.00
22657;BME280;11495;55.610;12.100;2023-04-28T17:48:28;101040.72;;;8.42;0.00
22657;BME280;11495;55.610;12.100;2023-04-28T17:50:54;101041.75;;;8.36;0.00
22657;BME280;11495;55.610;12.100;2023-04-28T17:53:23;101044.94;;;8.33;0.00
22657;BME280;11495;55.610;12.100;2023-04-28T17:55:49;101037.94;;;8.20;0.00
22657;BME280;11495;55.610;12.100;2023-04-28T17:58:17;101045.53;;;8.13;0.00
22657;BME280;11495;55.610;12.100;2023-04-28T18:00:48;101041.81;;;8.02;0.00
22657;BME280;11495;55.610;12.100;2023-04-28T18:03:20;101021.41;;;7.93;0.00
22657;BME280;11495;55.610;12.100;2023-04-28T18:05:46;101004.94;;;7.88;0.00
22657;BME280;11495;55.610;12.100;2023-04-28T18:08:12;101004.28;;;7.81;0.00
22657;BME280;11495;55.610;12.100;2023-04-28T18:10:39;101001.47;;;7.76;0.00
22657;BME280;11495;55.610;12.100;2023-04-28T18:13:09;100995.34;;;7.69;0.00
22657;BME280;11495;55.610;12.100;2023-04-28T18:15:34;101000.75;;;7.64;0.00
22657;BME280;11495;55.610;12.100;2023-04-28T18:18:00;100995.72;;;7.55;0.00
22657;BME280;11495;55.610;12.100;2023-04-28T18:20:25;100995.03;;;7.48;0.00
22657;BME280;11495;55.610;12.100;2023-04-28T18:22:57;101000.44;;;7.43;0.00
22657;BME280;11495;55.610;12.100;2023-04-28T18:25:22;101002.44;;;7.31;0.00
22657;BME280;11495;55.610;12.100;2023-04-28T18:27:48;101005.91;;;7.26;0.00
22657;BME280;11495;55.610;12.100;2023-04-28T18:30:18;101015.34;;;7.19;0.00
22657;BME280;11495;55.610;12.100;2023-04-28T18:32:45;100998.88;;;7.14;0.00
22657;BME280;11495;55.610;12.100;2023-04-28T18:35:12;100953.62;;;7.06;0.00
22657;BME280;11495;55.610;12.100;2023-04-28T18:37:37;100904.31;;;7.01;0.00
22657;BME280;11495;55.610;12.100;2023-04-28T18:40:09;100874.19;;;6.96;0.00
22657;BME280;11495;55.610;12.100;2023-04-28T18:42:35;100852.41;;;6.84;0.00
22657;BME280;11495;55.610;12.100;2023-04-28T18:45:01;100787.25;;;6.83;0.00
22657;BME280;11495;55.610;12.100;2023-04-28T18:47:31;78091.75;;;0.08;0.00
22657;BME280;11495;55.610;12.100;2023-04-28T18:49:57;100736.06;;;5.29;0.00
22657;BME280;11495;55.610;12.100;2023-04-28T18:52:24;100716.03;;;6.66;0.00
22657;BME280;11495;55.610;12.100;2023-04-28T18:54:49;100683.75;;;6.63;0.00
22657;BME280;11495;55.610;12.100;2023-04-28T18:57:24;100649.81;;;6.59;0.00
22657;BME280;11495;55.610;12.100;2023-04-28T18:59:57;100649.81;;;6.59;0.00
22657;BME280;11495;55.610;12.100;2023-04-28T19:02:23;100583.59;;;6.52;0.00
22657;BME280;11495;55.610;12.100;2023-04-28T19:04:48;100568.81;;;6.47;0.00
22657;BME280;11495;55.610;12.100;2023-04-28T19:07:14;100548.28;;;6.45;0.00
22657;BME280;11495;55.610;12.100;2023-04-28T19:09:42;100545.81;;;6.43;0.00
22657;BME280;11495;55.610;12.100;2023-04-28T19:12:08;100539.78;;;6.41;0.00
22657;BME280;11495;55.610;12.100;2023-04-28T19:14:33;100518.44;;;6.38;0.00
22657;BME280;11495;55.610;12.100;2023-04-28T19:17:00;100518.94;;;6.35;0.00
22657;BME280;11495;55.610;12.100;2023-04-28T19:19:32;100512.34;;;6.31;0.00
22657;BME280;11495;55.610;12.100;2023-04-28T19:21:59;79289.41;;;6.31;0.00
22657;BME280;11495;55.610;12.100;2023-04-28T19:24:25;100346.47;;;6.31;0.00
22657;BME280;11495;55.610;12.100;2023-04-28T19:27:01;100512.34;;;6.31;0.00
22657;BME280;11495;55.610;12.100;2023-04-28T19:29:44;100512.34;;;6.31;0.00
22657;BME280;11495;55.610;12.100;2023-04-28T19:32:13;99506.41;;;6.31;0.00
22657;BME280;11495;55.610;12.100;2023-04-28T19:35:03;100512.34;;;6.31;0.00
22657;BME280;11495;55.610;12.100;2023-04-28T19:37:33;100512.34;;;6.31;0.00
22657;BME280;11495;55.610;12.100;2023-04-28T19:40:35;85906.22;;;6.05;0.00
22657;BME280;11495;55.610;12.100;2023-04-28T19:43:03;100380.44;;;6.04;0.00
